Time;durP1;ratioP1;P1;durP2;ratioP2;P2;SDS_P1;SDS_P2;PMS_P1;PMS_P2;Temp;Humidity;BMP_temperature;BMP_pressure;BME280_temperature;BME280_humidity;BME280_pressure;Samples;Min_cycle;Max_cycle;Signal;HPM_P1;HPM_P2
2022/01/14 00:02:04;;;;;;;70.80;22.50;;;;;;;2.04;100.00;103771.78;5106366;28;20024;-80
2022/01/14 00:04:30;;;;;;;58.40;23.75;;;;;;;2.04;100.00;103773.50;5091625;28;20498;-79
2022/01/14 00:06:56;;;;;;;48.83;22.38;;;;;;;2.02;100.00;103770.91;5107027;28;20070;-80
2022/01/14 00:09:21;;;;;;;69.00;23.02;;;;;;;2.00;100.00;103776.91;5102231;28;20111;-80
2022/01/14 00:11:51;;;;;;;64.18;21.77;;;;;;;1.96;100.00;103772.53;5092486;28;20099;-79
2022/01/14 00:16:44;;;;;;;64.65;22.02;;;;;;;1.95;100.00;103765.63;5087134;28;20400;-80
2022/01/14 00:19:10;;;;;;;54.33;22.38;;;;;;;1.91;100.00;103771.63;5092034;28;20035;-79
2022/01/14 00:21:37;;;;;;;60.05;22.17;;;;;;;1.88;100.00;103770.75;5079608;28;20021;-79
2022/01/14 00:24:10;;;;;;;65.90;21.50;;;;;;;1.88;100.00;103765.56;5071537;28;20032;-80
2022/01/14 00:32:09;;;;;;;60.22;21.77;;;;;;;1.78;100.00;103750.75;5078157;28;20074;-79
2022/01/14 00:34:34;;;;;;;76.38;24.50;;;;;;;1.76;100.00;103755.06;5081605;28;20392;-78
2022/01/14 00:37:00;;;;;;;60.35;22.17;;;;;;;1.75;100.00;103744.69;5094446;28;20024;-79
2022/01/14 00:39:26;;;;;;;49.90;21.67;;;;;;;1.75;100.00;103745.53;5090599;28;20024;-78
2022/01/14 00:41:51;;;;;;;59.67;22.88;;;;;;;1.74;100.00;103742.94;5072796;28;20028;-79
2022/01/14 00:44:17;;;;;;;50.60;21.90;;;;;;;1.74;100.00;103743.81;5080638;28;20108;-78
2022/01/14 00:46:44;;;;;;;63.33;22.17;;;;;;;1.71;100.00;103742.91;5091949;28;20042;-78
2022/01/14 00:49:13;;;;;;;49.33;19.90;;;;;;;1.73;100.00;103736.88;5091208;28;20055;-78
2022/01/14 00:51:39;;;;;;;60.63;21.33;;;;;;;1.73;100.00;103731.69;5072718;28;20138;-78
2022/01/14 00:54:05;;;;;;;49.85;20.85;;;;;;;1.71;100.00;103723.03;5071811;28;20503;-78
2022/01/14 00:59:14;;;;;;;49.83;20.67;;;;;;;1.71;100.00;103712.63;5071658;28;20461;-78
2022/01/14 01:01:51;;;;;;;52.05;21.38;;;;;;;1.72;100.00;103709.19;5087063;28;20031;-78
2022/01/14 01:04:29;;;;;;;63.42;21.20;;;;;;;1.71;100.00;103704.84;5070741;28;20031;-78
2022/01/14 01:06:54;;;;;;;63.97;20.45;;;;;;;1.69;100.00;103703.97;5083714;28;20060;-78
2022/01/14 01:09:23;;;;;;;53.08;20.25;;;;;;;1.67;100.00;103710.88;5073073;28;20020;-78
2022/01/14 01:11:55;;;;;;;44.65;19.90;;;;;;;1.68;100.00;103702.22;5072766;28;20051;-78
2022/01/14 01:14:28;;;;;;;35.95;19.38;;;;;;;1.68;100.00;103712.63;5099742;28;20028;-78
2022/01/14 01:16:53;;;;;;;87.05;21.02;;;;;;;1.65;100.00;103712.59;5090772;28;20050;-79
2022/01/14 01:19:20;;;;;;;55.80;19.42;;;;;;;1.65;100.00;103701.34;5089919;28;20028;-78
2022/01/14 01:21:46;;;;;;;56.38;19.02;;;;;;;1.62;100.00;103691.81;5091307;28;20487;-78
2022/01/14 01:24:15;;;;;;;63.15;18.60;;;;;;;1.60;100.00;103693.47;5090028;28;20036;-78
2022/01/14 01:26:42;;;;;;;73.65;19.08;;;;;;;1.57;100.00;103698.66;5090150;28;20024;-78
2022/01/14 01:31:43;;;;;;;67.32;18.63;;;;;;;1.53;100.00;103694.28;5090708;28;20028;-79
2022/01/14 01:34:12;;;;;;;61.90;18.73;;;;;;;1.52;100.00;103690.81;5071483;28;20037;-78
2022/01/14 01:36:41;;;;;;;52.35;18.17;;;;;;;1.51;100.00;103703.78;5070158;28;20021;-79
2022/01/14 01:39:09;;;;;;;64.57;18.80;;;;;;;1.47;100.00;103700.28;5070450;28;20504;-79
2022/01/14 01:41:36;;;;;;;36.85;18.20;;;;;;;1.47;100.00;103699.41;5074402;28;20028;-79
2022/01/14 01:44:06;;;;;;;42.92;18.08;;;;;;;1.45;100.00;103694.22;5081873;28;20052;-79
2022/01/14 01:46:31;;;;;;;46.10;18.13;;;;;;;1.46;100.00;103695.09;5078636;28;20915;-79
2022/01/14 01:48:57;;;;;;;52.38;18.60;;;;;;;1.44;100.00;103687.28;5089115;28;20028;-79
2022/01/14 01:51:22;;;;;;;51.53;17.67;;;;;;;1.41;100.00;103682.06;5090863;28;20081;-78
2022/01/14 01:53:49;;;;;;;54.80;19.85;;;;;;;1.42;100.00;103675.16;5106324;28;20020;-79
2022/01/14 01:56:15;;;;;;;40.97;18.35;;;;;;;1.40;100.00;103679.47;5090562;28;20026;-78
2022/01/14 01:58:40;;;;;;;34.08;17.02;;;;;;;1.43;100.00;103679.50;5080547;28;20036;-78
2022/01/14 02:01:08;;;;;;;50.72;19.25;;;;;;;1.41;100.00;103689.00;5070283;28;20029;-79
2022/01/14 02:03:34;;;;;;;61.58;18.17;;;;;;;1.37;100.00;103682.03;5070018;28;20195;-79
2022/01/14 02:06:00;;;;;;;61.70;18.10;;;;;;;1.33;100.00;103688.91;5069979;28;20024;-79
2022/01/14 02:08:26;;;;;;;43.97;18.67;;;;;;;1.33;100.00;103688.91;5069520;28;20034;-78
2022/01/14 02:10:51;;;;;;;43.30;17.20;;;;;;;1.30;100.00;103682.84;5076196;28;20032;-78
2022/01/14 02:13:17;;;;;;;36.92;16.45;;;;;;;1.30;100.00;103682.84;5085293;28;20059;-78
2022/01/14 02:16:01;;;;;;;50.03;17.30;;;;;;;1.27;100.00;103678.50;5072635;28;20106;-78
2022/01/14 02:18:48;;;;;;;54.42;17.20;;;;;;;1.24;100.00;103681.91;5089905;28;20407;-78
2022/01/14 02:24:55;;;;;;;40.15;18.08;;;;;;;1.29;100.00;103674.19;5088844;28;20059;-78
2022/01/14 02:26:53;;;;;;;50.50;17.88;;;;;;;1.29;100.00;103668.13;5087282;28;20032;-78
2022/01/14 02:29:20;;;;;;;53.63;19.23;;;;;;;1.25;100.00;103662.91;5100339;28;20034;-78
2022/01/14 02:31:46;;;;;;;59.78;18.17;;;;;;;1.27;100.00;103669.84;5085478;28;20051;-78
2022/01/14 02:34:16;;;;;;;63.58;17.80;;;;;;;1.22;100.00;103660.28;5075413;28;20377;-77
2022/01/14 02:36:43;;;;;;;49.42;17.38;;;;;;;1.20;100.00;103655.91;5068201;28;20119;-78
2022/01/14 02:39:10;;;;;;;54.22;17.13;;;;;;;1.16;100.00;103652.41;5069326;28;20020;-78
2022/01/14 02:41:39;;;;;;;50.42;17.35;;;;;;;1.13;100.00;103647.22;5068614;28;20468;-78
2022/01/14 02:44:08;;;;;;;53.47;17.42;;;;;;;1.12;100.00;103642.88;5076453;28;20115;-78
2022/01/14 02:46:38;;;;;;;48.40;16.40;;;;;;;1.13;100.00;103651.53;5088387;28;20081;-78
2022/01/14 02:49:04;;;;;;;52.35;16.70;;;;;;;1.08;100.00;103651.47;5105229;28;20028;-78
2022/01/14 02:51:31;;;;;;;34.75;15.63;;;;;;;1.09;100.00;103653.22;5084167;28;20040;-78
2022/01/14 02:53:59;;;;;;;55.97;17.88;;;;;;;1.07;100.00;103648.88;5088916;28;20030;-78
2022/01/14 02:56:30;;;;;;;40.63;16.35;;;;;;;1.08;100.00;103643.69;5088689;28;20115;-78
2022/01/14 02:58:57;;;;;;;46.67;16.40;;;;;;;1.07;100.00;103641.97;5102756;28;20042;-78
2022/01/14 03:01:24;;;;;;;41.53;16.73;;;;;;;1.04;100.00;103647.13;5083105;28;20027;-78
2022/01/14 03:03:54;;;;;;;69.28;16.13;;;;;;;1.03;100.00;103644.50;5080740;28;20032;-78
2022/01/14 03:06:20;;;;;;;40.50;16.25;;;;;;;1.03;100.00;103647.97;5066732;28;20029;-78
2022/01/14 03:08:46;;;;;;;75.47;16.90;;;;;;;0.99;100.00;103651.38;5074090;28;20031;-78
2022/01/14 03:11:18;;;;;;;42.08;16.15;;;;;;;0.97;100.00;103647.91;5077686;28;20032;-79
2022/01/14 03:13:43;;;;;;;36.20;16.07;;;;;;;0.97;100.00;103645.31;5077810;28;20020;-78
2022/01/14 03:16:09;;;;;;;36.38;15.70;;;;;;;0.99;100.00;103650.53;5087837;28;20099;-78
2022/01/14 03:18:47;;;;;;;34.67;16.60;;;;;;;1.00;100.00;103645.34;5104024;28;20039;-78
2022/01/14 03:21:15;;;;;;;39.53;16.17;;;;;;;0.99;100.00;103643.59;5089557;28;20032;-79
2022/01/14 03:23:47;;;;;;;68.25;16.88;;;;;;;0.97;100.00;103647.91;5105007;28;20069;-78
2022/01/14 03:26:15;;;;;;;38.45;16.83;;;;;;;0.98;100.00;103639.28;5087363;28;20036;-78
2022/01/14 03:28:42;;;;;;;36.55;17.38;;;;;;;1.02;100.00;103646.22;5088108;28;20032;-78
2022/01/14 03:31:07;;;;;;;50.17;16.77;;;;;;;1.01;100.00;103649.69;5089774;28;20027;-78
2022/01/14 03:33:34;;;;;;;38.92;16.98;;;;;;;1.00;100.00;103647.94;5088418;28;20048;-78
2022/01/14 03:36:00;;;;;;;50.13;17.50;;;;;;;0.97;100.00;103642.72;5090051;28;20058;-78
2022/01/14 03:38:25;;;;;;;63.40;17.60;;;;;;;0.98;100.00;103653.97;5092808;28;20067;-77
2022/01/14 03:40:51;;;;;;;30.92;16.80;;;;;;;0.99;100.00;103646.19;5083743;28;20410;-78
2022/01/14 03:43:16;;;;;;;38.80;16.70;;;;;;;0.98;100.00;103638.41;5089364;28;20127;-78
2022/01/14 03:45:42;;;;;;;57.72;17.63;;;;;;;1.01;100.00;103641.91;5090500;28;20097;-78
2022/01/14 03:48:08;;;;;;;48.05;16.40;;;;;;;0.97;100.00;103639.25;5090566;28;20102;-78
2022/01/14 03:50:37;;;;;;;35.80;17.63;;;;;;;0.99;100.00;103635.84;5075856;28;20365;-78
2022/01/14 03:53:03;;;;;;;28.30;16.27;;;;;;;1.00;100.00;103637.56;5080951;28;20055;-78
2022/01/14 03:55:28;;;;;;;32.15;17.15;;;;;;;1.01;100.00;103638.44;5090401;28;20028;-79
2022/01/14 03:57:54;;;;;;;51.67;16.83;;;;;;;0.99;100.00;103638.44;5092618;28;20020;-78
2022/01/14 04:00:22;;;;;;;35.10;16.20;;;;;;;0.97;100.00;103637.53;5088166;28;20092;-78
2022/01/14 04:02:47;;;;;;;41.80;17.02;;;;;;;0.98;100.00;103639.28;5089120;28;20660;-78
2022/01/14 04:05:14;;;;;;;29.23;16.85;;;;;;;0.99;100.00;103641.03;5105792;28;20020;-78
2022/01/14 04:07:39;;;;;;;37.38;16.92;;;;;;;0.99;100.00;103646.19;5091352;28;20353;-79
2022/01/14 04:10:05;;;;;;;33.53;16.52;;;;;;;1.00;100.00;103645.34;5071907;28;20108;-77
2022/01/14 04:12:56;;;;;;;80.63;17.77;;;;;;;0.99;100.00;103650.53;5077398;28;20073;-78
2022/01/14 04:15:38;;;;;;;58.80;16.98;;;;;;;0.93;100.00;103641.81;5070518;28;20039;-78
2022/01/14 04:18:08;;;;;;;67.05;16.38;;;;;;;0.95;100.00;103639.25;5085062;28;20040;-78
2022/01/14 04:20:36;;;;;;;58.65;16.20;;;;;;;0.92;100.00;103639.22;5071876;28;20048;-77
2022/01/14 04:23:02;;;;;;;59.83;16.58;;;;;;;0.90;100.00;103633.16;5083228;28;20033;-78
2022/01/14 04:25:28;;;;;;;45.88;16.88;;;;;;;0.89;100.00;103626.22;5072581;28;20031;-78
2022/01/14 04:27:53;;;;;;;52.78;16.95;;;;;;;0.89;100.00;103636.59;5082879;28;20090;-78
2022/01/14 04:30:20;;;;;;;95.72;16.83;;;;;;;0.90;100.00;103646.09;5070231;28;20128;-78
2022/01/14 04:32:45;;;;;;;62.80;16.50;;;;;;;0.89;100.00;103634.00;5072361;28;20112;-78
2022/01/14 04:35:14;;;;;;;88.68;16.30;;;;;;;0.85;100.00;103637.41;5079262;28;20127;-78
2022/01/14 04:37:39;;;;;;;67.57;16.40;;;;;;;0.84;100.00;103626.19;5075196;28;20061;-77
2022/01/14 04:40:05;;;;;;;56.28;15.60;;;;;;;0.83;100.00;103627.03;5073310;28;20063;-78
2022/01/14 04:42:31;;;;;;;45.47;15.88;;;;;;;0.83;100.00;103621.84;5107271;28;20027;-78
2022/01/14 04:44:57;;;;;;;48.22;15.90;;;;;;;0.81;100.00;103608.00;5073879;28;20465;-78
2022/01/14 04:50:07;;;;;;;60.97;16.13;;;;;;;0.78;100.00;103601.88;5084307;28;20507;-78
2022/01/14 04:52:32;;;;;;;46.55;16.40;;;;;;;0.78;100.00;103605.34;5104219;28;20024;-77
2022/01/14 04:54:58;;;;;;;70.90;15.65;;;;;;;0.80;100.00;103597.59;5081725;28;20020;-78
2022/01/14 04:57:23;;;;;;;43.42;15.13;;;;;;;0.81;100.00;103597.63;5086079;28;20039;-78
2022/01/14 04:59:49;;;;;;;39.60;15.13;;;;;;;0.82;100.00;103595.91;5089050;28;20023;-78
2022/01/14 05:02:15;;;;;;;55.22;17.05;;;;;;;0.81;100.00;103589.88;5082576;28;20063;-78
2022/01/14 05:04:45;;;;;;;52.25;15.73;;;;;;;0.79;100.00;103590.69;5081500;28;20472;-78
2022/01/14 05:07:21;;;;;;;63.78;15.63;;;;;;;0.79;100.00;103590.69;5078593;28;20582;-77
2022/01/14 05:09:56;;;;;;;40.20;14.73;;;;;;;0.77;100.00;103584.59;5074305;28;20028;-77
2022/01/14 05:12:22;;;;;;;71.32;16.20;;;;;;;0.77;100.00;103587.19;5071426;28;20020;-79
2022/01/14 05:14:47;;;;;;;87.75;15.52;;;;;;;0.75;100.00;103583.72;5075123;28;20024;-78
2022/01/14 05:17:12;;;;;;;45.85;15.02;;;;;;;0.72;100.00;103576.78;5078811;28;20439;-78
2022/01/14 05:19:39;;;;;;;52.83;15.15;;;;;;;0.74;100.00;103581.97;5074342;28;20032;-78
2022/01/14 05:22:05;;;;;;;83.93;15.48;;;;;;;0.71;100.00;103581.97;5089766;28;20024;-78
2022/01/14 05:24:30;;;;;;;45.10;14.63;;;;;;;0.69;100.00;103576.75;5090224;28;20058;-79
2022/01/14 05:26:56;;;;;;;42.90;14.02;;;;;;;0.69;100.00;103576.75;5083944;28;20032;-78
2022/01/14 05:29:21;;;;;;;66.90;16.35;;;;;;;0.67;100.00;103575.00;5068870;28;20013;-78
2022/01/14 05:32:00;;;;;;;31.38;14.60;;;;;;;0.67;100.00;103577.59;5070902;28;20028;-78
2022/01/14 05:34:26;;;;;;;42.13;14.57;;;;;;;0.69;100.00;103578.47;5081241;28;20480;-77
2022/01/14 05:36:51;;;;;;;43.55;14.65;;;;;;;0.63;100.00;103569.78;5082843;28;20067;-78
2022/01/14 05:39:20;;;;;;;54.80;14.15;;;;;;;0.61;100.00;103570.63;5084459;28;20024;-78
2022/01/14 05:41:45;;;;;;;64.10;15.20;;;;;;;0.57;100.00;103572.31;5081988;28;20037;-78
2022/01/14 05:44:13;;;;;;;53.70;14.73;;;;;;;0.57;100.00;103569.72;5086924;28;20110;-78
2022/01/14 05:46:39;;;;;;;28.63;13.75;;;;;;;0.57;100.00;103574.03;5075679;28;20391;-78
2022/01/14 05:49:04;;;;;;;46.45;14.27;;;;;;;0.54;100.00;103561.91;5070921;28;20345;-78
2022/01/14 05:51:30;;;;;;;37.08;14.32;;;;;;;0.53;100.00;103567.97;5069042;28;20050;-78
2022/01/14 05:53:55;;;;;;;54.22;14.60;;;;;;;0.50;100.00;103560.16;5070100;28;20028;-77
2022/01/14 05:56:21;;;;;;;66.00;14.15;;;;;;;0.51;100.00;103566.19;5075038;28;20103;-78
2022/01/14 05:58:47;;;;;;;61.80;14.90;;;;;;;0.48;100.00;103559.25;5077085;28;20113;-77
2022/01/14 06:01:12;;;;;;;86.53;14.70;;;;;;;0.43;100.00;103558.34;5093420;28;20024;-78
2022/01/14 06:03:37;;;;;;;55.88;14.45;;;;;;;0.40;100.00;103563.50;5087401;28;20115;-78
2022/01/14 06:06:03;;;;;;;31.25;14.27;;;;;;;0.40;100.00;103562.59;5102970;28;20028;-77
2022/01/14 06:08:28;;;;;;;57.25;14.88;;;;;;;0.40;100.00;103570.34;5080003;28;20024;-78
2022/01/14 06:10:53;;;;;;;36.65;13.45;;;;;;;0.37;100.00;103566.00;5089175;28;20102;-78
2022/01/14 06:13:22;;;;;;;60.20;15.45;;;;;;;0.37;100.00;103560.84;5089731;28;20036;-78
2022/01/14 06:15:47;;;;;;;38.17;15.82;;;;;;;0.38;100.00;103566.88;5087903;28;20020;-77
2022/01/14 06:18:12;;;;;;;41.00;15.77;;;;;;;0.40;100.00;103570.34;5089545;28;20071;-78
2022/01/14 06:20:38;;;;;;;33.53;15.75;;;;;;;0.38;100.00;103580.69;5084764;28;21074;-78
2022/01/14 06:23:03;;;;;;;37.53;16.05;;;;;;;0.38;100.00;103566.88;5068764;28;20090;-78
2022/01/14 06:25:28;;;;;;;41.60;16.83;;;;;;;0.37;100.00;103563.44;5069413;28;20116;-78
2022/01/14 06:27:54;;;;;;;25.55;15.35;;;;;;;0.40;100.00;103575.53;5067894;28;20043;-78
2022/01/14 06:30:19;;;;;;;78.80;17.52;;;;;;;0.39;100.00;103576.38;5073169;28;20028;-77
2022/01/14 06:32:45;;;;;;;35.10;17.17;;;;;;;0.39;100.00;103579.84;5067665;28;20059;-79
2022/01/14 06:35:14;;;;;;;32.65;15.55;;;;;;;0.42;100.00;103581.63;5072541;28;20040;-78
2022/01/14 06:37:41;;;;;;;72.35;17.42;;;;;;;0.36;100.00;103582.41;5084952;28;20028;-78
2022/01/14 06:40:08;;;;;;;46.88;16.88;;;;;;;0.37;100.00;103568.59;5088131;28;20116;-77
2022/01/14 06:42:34;;;;;;;43.75;16.23;;;;;;;0.35;100.00;103572.91;5103409;28;20110;-78
2022/01/14 06:44:59;;;;;;;60.63;17.30;;;;;;;0.36;100.00;103578.94;5080832;28;20124;-78
2022/01/14 06:47:25;;;;;;;77.70;18.13;;;;;;;0.32;100.00;103572.88;5089632;28;20465;-78
2022/01/14 06:49:51;;;;;;;50.60;17.20;;;;;;;0.31;100.00;103565.94;5089536;28;20107;-78
2022/01/14 06:52:16;;;;;;;56.15;17.98;;;;;;;0.30;100.00;103556.44;5089615;28;20126;-77
2022/01/14 06:54:41;;;;;;;56.15;17.70;;;;;;;0.31;100.00;103555.59;5089207;28;20012;-78
2022/01/14 06:57:07;;;;;;;35.70;18.02;;;;;;;0.32;100.00;103562.50;5075832;28;20491;-78
2022/01/14 06:59:32;;;;;;;63.53;17.52;;;;;;;0.28;100.00;103560.72;5089556;28;20023;-78
2022/01/14 07:01:58;;;;;;;55.60;18.80;;;;;;;0.26;100.00;103565.91;5102829;28;20038;-78
2022/01/14 07:04:24;;;;;;;53.63;19.00;;;;;;;0.25;100.00;103571.06;5071344;28;20052;-78
2022/01/14 07:06:49;;;;;;;86.40;19.40;;;;;;;0.27;100.00;103584.88;5087439;28;20422;-77
2022/01/14 07:09:15;;;;;;;70.25;20.27;;;;;;;0.27;100.00;103574.53;5088491;28;20020;-79
2022/01/14 07:11:40;;;;;;;64.63;19.40;;;;;;;0.26;100.00;103577.97;5086259;28;20023;-78
2022/01/14 07:14:07;;;;;;;59.08;19.50;;;;;;;0.23;100.00;103577.94;5088521;28;20464;-77
2022/01/14 07:16:33;;;;;;;79.88;20.23;;;;;;;0.23;100.00;103589.16;5089046;28;20031;-78
2022/01/14 07:19:00;;;;;;;109.30;21.65;;;;;;;0.20;100.00;103583.94;5088757;28;20028;-78
2022/01/14 07:21:26;;;;;;;42.17;19.65;;;;;;;0.20;100.00;103583.94;5088681;28;20149;-78
2022/01/14 07:23:52;;;;;;;39.00;19.98;;;;;;;0.24;100.00;103596.06;5104142;28;20042;-77
2022/01/14 07:26:17;;;;;;;60.20;19.58;;;;;;;0.25;100.00;103594.34;5086588;28;20032;-78
2022/01/14 07:28:43;;;;;;;43.83;19.45;;;;;;;0.27;100.00;103603.00;5088452;28;20070;-78
2022/01/14 07:31:09;;;;;;;50.17;21.13;;;;;;;0.28;100.00;103596.97;5088821;28;20375;-78
2022/01/14 07:33:35;;;;;;;118.55;22.95;;;;;;;0.25;100.00;103584.88;5087243;28;20044;-77
2022/01/14 07:36:00;;;;;;;82.30;22.13;;;;;;;0.26;100.00;103593.50;5087417;28;20039;-77
2022/01/14 07:38:26;;;;;;;104.93;22.17;;;;;;;0.23;100.00;103588.28;5087872;28;20329;-77
2022/01/14 07:40:51;;;;;;;146.68;22.63;;;;;;;0.20;100.00;103591.72;5069350;28;20033;-78
2022/01/14 07:43:18;;;;;;;112.88;22.90;;;;;;;0.18;100.00;103595.13;5069265;28;20048;-78
2022/01/14 07:45:44;;;;;;;87.18;22.05;;;;;;;0.15;100.00;103582.16;5086273;28;20365;-77
2022/01/14 07:48:09;;;;;;;78.18;22.70;;;;;;;0.19;100.00;103582.19;5088458;28;20050;-77
2022/01/14 07:50:34;;;;;;;96.32;23.10;;;;;;;0.17;100.00;103583.91;5086678;28;20039;-77
2022/01/14 07:53:00;;;;;;;91.20;21.33;;;;;;;0.18;100.00;103577.00;5088067;28;20023;-78
2022/01/14 07:55:25;;;;;;;59.45;22.58;;;;;;;0.18;100.00;103584.78;5077381;28;20078;-77
2022/01/14 07:57:51;;;;;;;59.05;21.92;;;;;;;0.20;100.00;103588.25;5066771;28;20020;-77
2022/01/14 08:00:16;;;;;;;65.60;22.55;;;;;;;0.19;100.00;103587.38;5067127;28;20105;-77
2022/01/14 08:02:42;;;;;;;108.47;23.52;;;;;;;0.18;100.00;103583.06;5068017;28;20028;-78
2022/01/14 08:05:08;;;;;;;56.15;22.40;;;;;;;0.20;100.00;103581.34;5068469;28;20051;-78
2022/01/14 08:07:36;;;;;;;88.15;22.70;;;;;;;0.17;100.00;103576.13;5083045;28;20409;-78
2022/01/14 08:10:02;;;;;;;53.60;23.33;;;;;;;0.21;100.00;103590.00;5067976;28;20075;-79
2022/01/14 08:12:27;;;;;;;57.85;22.73;;;;;;;0.17;100.00;103577.84;5067601;28;20059;-78
2022/01/14 08:14:53;;;;;;;87.07;23.90;;;;;;;0.24;100.00;103590.03;5084989;28;20028;-79
2022/01/14 08:17:20;;;;;;;70.97;23.08;;;;;;;0.23;100.00;103596.06;5078677;28;20035;-79
2022/01/14 08:19:45;;;;;;;94.55;23.70;;;;;;;0.23;100.00;103588.28;5067576;28;20476;-80
2022/01/14 08:22:13;;;;;;;56.60;24.17;;;;;;;0.23;100.00;103591.75;5070788;28;20025;-79
2022/01/14 08:24:39;;;;;;;80.43;24.38;;;;;;;0.25;100.00;103586.59;5071349;28;20894;-79
2022/01/14 08:27:07;;;;;;;76.25;24.50;;;;;;;0.24;100.00;103574.50;5071534;28;20024;-80
2022/01/14 08:29:33;;;;;;;65.45;23.60;;;;;;;0.26;100.00;103575.38;5070148;28;20032;-79
2022/01/14 08:31:58;;;;;;;86.30;24.75;;;;;;;0.25;100.00;103573.63;5070911;28;20027;-79
2022/01/14 08:34:25;;;;;;;68.18;24.13;;;;;;;0.25;100.00;103581.41;5072649;28;20052;-80
2022/01/14 08:36:51;;;;;;;118.90;26.30;;;;;;;0.24;100.00;103574.50;5079776;28;20031;-79
2022/01/14 08:39:16;;;;;;;76.28;25.00;;;;;;;0.22;100.00;103571.88;5073519;28;20430;-80
2022/01/14 08:41:41;;;;;;;127.85;26.73;;;;;;;0.22;100.00;103573.59;5077035;28;20079;-80
2022/01/14 08:44:08;;;;;;;76.60;25.17;;;;;;;0.23;100.00;103567.56;5088081;28;20026;-80
2022/01/14 08:46:34;;;;;;;76.55;26.42;;;;;;;0.27;100.00;103580.56;5089836;28;20146;-80
2022/01/14 08:49:01;;;;;;;53.40;25.95;;;;;;;0.28;100.00;103592.66;5106188;28;20048;-80
2022/01/14 08:51:28;;;;;;;64.32;27.27;;;;;;;0.37;100.00;103606.56;5082597;28;20484;-80
2022/01/14 08:53:54;;;;;;;50.88;27.40;;;;;;;0.38;100.00;103604.00;5079995;28;20129;-79
2022/01/14 08:56:20;;;;;;;55.90;27.33;;;;;;;0.43;100.00;103602.38;5079238;28;20043;-80
2022/01/14 08:58:45;;;;;;;68.68;29.10;;;;;;;0.42;100.00;103586.81;5079834;28;20524;-80
2022/01/14 09:01:14;;;;;;;106.90;27.85;;;;;;;0.44;100.00;103578.22;5097331;28;20028;-80
2022/01/14 09:03:39;;;;;;;57.00;27.83;;;;;;;0.45;100.00;103569.59;5079721;28;20058;-80
2022/01/14 09:06:04;;;;;;;78.82;28.83;;;;;;;0.49;100.00;103571.38;5091374;28;20024;-80
2022/01/14 09:08:30;;;;;;;65.18;28.70;;;;;;;0.51;100.00;103571.38;5089706;28;20081;-79
2022/01/14 09:10:56;;;;;;;60.70;28.95;;;;;;;0.56;100.00;103586.13;5090890;28;20034;-80
2022/01/14 09:13:21;;;;;;;88.03;29.98;;;;;;;0.57;100.00;103564.53;5090946;28;20433;-80
2022/01/14 09:15:47;;;;;;;64.57;28.55;;;;;;;0.58;100.00;103575.78;5092321;28;20410;-79
2022/01/14 09:18:12;;;;;;;63.50;28.85;;;;;;;0.65;100.00;103589.66;5091159;28;20028;-79
2022/01/14 09:20:37;;;;;;;89.15;31.08;;;;;;;0.67;100.00;103591.41;5091876;28;20020;-79
2022/01/14 09:23:04;;;;;;;81.10;31.05;;;;;;;0.69;100.00;103587.13;5080223;28;20032;-79
2022/01/14 09:25:29;;;;;;;81.00;30.27;;;;;;;0.70;100.00;103586.25;5069819;28;20028;-79
2022/01/14 09:27:55;;;;;;;121.55;33.42;;;;;;;0.74;100.00;103592.34;5071341;28;20123;-79
2022/01/14 09:30:22;;;;;;;77.70;30.17;;;;;;;0.75;100.00;103575.94;5070329;28;20023;-79
2022/01/14 09:32:48;;;;;;;64.43;30.67;;;;;;;0.78;100.00;103586.34;5070650;28;20412;-78
2022/01/14 09:35:14;;;;;;;71.90;31.50;;;;;;;0.80;100.00;103582.94;5070679;28;20036;-79
2022/01/14 09:37:41;;;;;;;68.70;30.95;;;;;;;0.85;100.00;103590.78;5091333;28;20032;-79
2022/01/14 09:40:07;;;;;;;92.10;32.25;;;;;;;0.88;100.00;103593.38;5089948;28;20024;-79
2022/01/14 09:42:34;;;;;;;74.28;31.50;;;;;;;0.87;100.00;103584.75;5090598;28;20035;-79
2022/01/14 09:44:59;;;;;;;67.50;31.80;;;;;;;0.90;100.00;103581.31;5090754;28;20107;-79
2022/01/14 09:47:25;;;;;;;62.45;31.17;;;;;;;0.94;100.00;103590.84;5089775;28;20149;-78
2022/01/14 09:49:51;;;;;;;70.35;33.15;;;;;;;1.02;100.00;103594.38;5087823;28;20024;-79
2022/01/14 09:52:17;;;;;;;87.20;33.33;;;;;;;1.05;100.00;103597.00;5089672;28;20559;-79
2022/01/14 09:54:44;;;;;;;86.97;32.88;;;;;;;1.06;100.00;103598.75;5078158;28;20095;-79
2022/01/14 09:57:12;;;;;;;77.95;32.95;;;;;;;1.08;100.00;103603.94;5070446;28;20337;-79
2022/01/14 09:59:38;;;;;;;70.10;32.65;;;;;;;1.12;100.00;103606.56;5069436;28;20184;-79
2022/01/14 10:02:03;;;;;;;64.63;32.35;;;;;;;1.15;100.00;103609.19;5069971;28;20107;-79
2022/01/14 10:04:29;;;;;;;73.70;34.00;;;;;;;1.18;100.00;103610.94;5069457;28;20099;-79
2022/01/14 10:06:57;;;;;;;79.68;35.50;;;;;;;1.22;100.00;103602.38;5069214;28;20033;-79
2022/01/14 10:09:38;;;;;;;78.45;33.10;;;;;;;1.28;100.00;103611.94;5082698;28;20013;-79
2022/01/14 10:12:05;;;;;;;72.13;33.40;;;;;;;1.25;100.00;103611.03;5090030;28;20400;-79
2022/01/14 10:14:33;;;;;;;73.43;32.17;;;;;;;1.28;100.00;103617.13;5089416;28;20020;-80
2022/01/14 10:17:01;;;;;;;70.65;33.97;;;;;;;1.32;100.00;103617.16;5071937;28;20021;-79
2022/01/14 10:19:29;;;;;;;60.72;31.77;;;;;;;1.31;100.00;103615.41;5068444;28;20040;-79
2022/01/14 10:21:55;;;;;;;62.47;30.77;;;;;;;1.35;100.00;103624.09;5085734;28;20055;-79
2022/01/14 10:24:23;;;;;;;59.15;30.30;;;;;;;1.38;100.00;103627.56;5103730;28;20028;-79
2022/01/14 10:26:57;;;;;;;61.45;30.77;;;;;;;1.41;100.00;103618.97;5070495;28;20113;-80
2022/01/14 10:29:27;;;;;;;64.07;32.60;;;;;;;1.44;100.00;103624.16;5068850;28;20107;-79
2022/01/14 10:31:53;;;;;;;73.25;31.77;;;;;;;1.44;100.00;103618.97;5085600;28;20062;-80
2022/01/14 10:34:18;;;;;;;63.05;32.25;;;;;;;1.46;100.00;103617.25;5068981;28;20079;-79
2022/01/14 10:36:50;;;;;;;66.88;31.60;;;;;;;1.47;100.00;103624.19;5089885;28;20432;-79
2022/01/14 10:39:24;;;;;;;67.45;31.13;;;;;;;1.49;100.00;103617.28;5080501;28;20024;-79
2022/01/14 10:41:52;;;;;;;67.63;30.80;;;;;;;1.50;100.00;103616.44;5084820;28;20128;-79
2022/01/14 10:44:28;;;;;;;65.20;30.23;;;;;;;1.51;100.00;103608.66;5088427;28;20405;-79
2022/01/14 10:47:10;;;;;;;63.05;30.27;;;;;;;1.52;100.00;103607.81;5088733;28;20032;-79
2022/01/14 10:49:37;;;;;;;72.10;33.58;;;;;;;1.54;100.00;103594.84;5088432;28;20035;-80
2022/01/14 10:52:32;;;;;;;66.25;32.30;;;;;;;1.59;100.00;103600.94;5088723;28;20423;-79
2022/01/14 10:54:59;;;;;;;62.65;31.42;;;;;;;1.58;100.00;103591.41;5071363;28;20536;-79
2022/01/14 10:57:26;;;;;;;62.78;32.03;;;;;;;1.58;100.00;103596.59;5088632;28;20050;-79
2022/01/14 10:59:55;;;;;;;66.40;32.72;;;;;;;1.61;100.00;103591.47;5088996;28;20023;-79
2022/01/14 11:02:31;;;;;;;68.28;34.13;;;;;;;1.65;100.00;103593.22;5089488;28;20024;-79
2022/01/14 11:05:04;;;;;;;66.35;32.95;;;;;;;1.67;100.00;103596.69;5088608;28;20471;-79
2022/01/14 11:07:29;;;;;;;72.43;35.92;;;;;;;1.67;100.00;103585.44;5074991;28;20020;-79
2022/01/14 11:09:57;;;;;;;68.65;34.70;;;;;;;1.72;100.00;103586.34;5069089;28;20082;-79
2022/01/14 11:12:23;;;;;;;65.75;34.67;;;;;;;1.75;100.00;103583.75;5068835;28;20020;-79
2022/01/14 11:14:49;;;;;;;71.10;34.05;;;;;;;1.77;100.00;103576.84;5085791;28;20020;-79
2022/01/14 11:17:14;;;;;;;68.10;34.55;;;;;;;1.82;100.00;103580.34;5074186;28;20494;-80
2022/01/14 11:19:47;;;;;;;67.90;33.67;;;;;;;1.82;100.00;103575.16;5068791;28;20471;-79
2022/01/14 11:24:58;;;;;;;68.05;35.25;;;;;;;1.88;100.00;103570.88;5068164;28;20097;-79
2022/01/14 11:27:24;;;;;;;66.20;34.25;;;;;;;1.92;100.00;103565.69;5068424;28;20042;-79
2022/01/14 11:29:57;;;;;;;65.35;33.97;;;;;;;1.94;100.00;103561.38;5067580;28;20548;-78
2022/01/14 11:32:25;;;;;;;65.78;34.58;;;;;;;2.00;100.00;103574.38;5082070;28;20032;-79